sensor_id;sensor_type;location;lat;lon;timestamp;temperature;humidity
65078;DHT22;51672;51.230;-2.322;2023-02-01T00:03:15;6.20;99.90
65078;DHT22;51672;51.230;-2.322;2023-02-01T00:07:00;6.20;99.90
65078;DHT22;51672;51.230;-2.322;2023-02-01T00:10:42;6.20;99.90
65078;DHT22;51672;51.230;-2.322;2023-02-01T00:14:25;6.20;99.90
65078;DHT22;51672;51.230;-2.322;2023-02-01T00:18:07;6.20;99.90
65078;DHT22;51672;51.230;-2.322;2023-02-01T00:21:49;6.20;99.90
65078;DHT22;51672;51.230;-2.322;2023-02-01T00:25:31;6.20;99.90
65078;DHT22;51672;51.230;-2.322;2023-02-01T00:29:18;6.20;99.90
65078;DHT22;51672;51.230;-2.322;2023-02-01T00:33:01;6.20;99.90
65078;DHT22;51672;51.230;-2.322;2023-02-01T00:36:43;6.20;99.90
65078;DHT22;51672;51.230;-2.322;2023-02-01T00:40:25;6.20;99.90
65078;DHT22;51672;51.230;-2.322;2023-02-01T00:44:07;6.20;99.90
65078;DHT22;51672;51.230;-2.322;2023-02-01T00:47:50;6.20;99.90
65078;DHT22;51672;51.230;-2.322;2023-02-01T00:51:32;6.20;99.90
65078;DHT22;51672;51.230;-2.322;2023-02-01T00:55:14;6.20;99.90
65078;DHT22;51672;51.230;-2.322;2023-02-01T00:58:56;6.30;99.90
65078;DHT22;51672;51.230;-2.322;2023-02-01T01:02:38;6.40;99.90
65078;DHT22;51672;51.230;-2.322;2023-02-01T01:06:23;6.40;99.90
65078;DHT22;51672;51.230;-2.322;2023-02-01T01:10:05;6.40;99.90
65078;DHT22;51672;51.230;-2.322;2023-02-01T01:13:49;6.40;99.90
65078;DHT22;51672;51.230;-2.322;2023-02-01T01:17:32;6.40;99.90
65078;DHT22;51672;51.230;-2.322;2023-02-01T01:21:15;6.40;99.90
65078;DHT22;51672;51.230;-2.322;2023-02-01T01:24:57;6.30;99.90
65078;DHT22;51672;51.230;-2.322;2023-02-01T01:28:40;6.30;99.90
65078;DHT22;51672;51.230;-2.322;2023-02-01T01:32:22;6.20;99.90
65078;DHT22;51672;51.230;-2.322;2023-02-01T01:36:08;6.20;99.90
65078;DHT22;51672;51.230;-2.322;2023-02-01T01:39:53;6.20;99.90
65078;DHT22;51672;51.230;-2.322;2023-02-01T01:43:47;6.10;99.90
65078;DHT22;51672;51.230;-2.322;2023-02-01T01:47:35;6.10;99.90
65078;DHT22;51672;51.230;-2.322;2023-02-01T01:51:23;6.10;99.90
65078;DHT22;51672;51.230;-2.322;2023-02-01T01:55:06;6.10;99.90
65078;DHT22;51672;51.230;-2.322;2023-02-01T01:58:49;6.20;99.90
65078;DHT22;51672;51.230;-2.322;2023-02-01T02:02:31;6.20;99.90
65078;DHT22;51672;51.230;-2.322;2023-02-01T02:10:06;6.20;99.90
65078;DHT22;51672;51.230;-2.322;2023-02-01T02:13:52;6.20;99.90
65078;DHT22;51672;51.230;-2.322;2023-02-01T02:25:38;6.40;99.90
65078;DHT22;51672;51.230;-2.322;2023-02-01T02:41:23;6.40;99.90
65078;DHT22;51672;51.230;-2.322;2023-02-01T02:45:47;6.50;99.90
65078;DHT22;51672;51.230;-2.322;2023-02-01T02:49:54;6.50;99.90
65078;DHT22;51672;51.230;-2.322;2023-02-01T02:54:11;6.60;99.90
65078;DHT22;51672;51.230;-2.322;2023-02-01T02:58:13;6.70;99.90
65078;DHT22;51672;51.230;-2.322;2023-02-01T03:02:16;6.80;99.90
65078;DHT22;51672;51.230;-2.322;2023-02-01T03:06:17;6.80;99.90
65078;DHT22;51672;51.230;-2.322;2023-02-01T03:10:03;6.80;99.90
65078;DHT22;51672;51.230;-2.322;2023-02-01T03:14:00;6.80;99.90
65078;DHT22;51672;51.230;-2.322;2023-02-01T03:17:44;6.80;99.90
65078;DHT22;51672;51.230;-2.322;2023-02-01T03:21:50;6.80;99.90
65078;DHT22;51672;51.230;-2.322;2023-02-01T03:25:34;6.70;99.90
65078;DHT22;51672;51.230;-2.322;2023-02-01T03:29:21;6.70;99.90
65078;DHT22;51672;51.230;-2.322;2023-02-01T03:33:07;6.60;99.90
65078;DHT22;51672;51.230;-2.322;2023-02-01T03:37:02;6.70;99.90
65078;DHT22;51672;51.230;-2.322;2023-02-01T03:40:54;6.70;99.90
65078;DHT22;51672;51.230;-2.322;2023-02-01T03:44:45;6.70;99.90
65078;DHT22;51672;51.230;-2.322;2023-02-01T03:48:28;6.60;99.90
65078;DHT22;51672;51.230;-2.322;2023-02-01T03:52:17;6.70;99.90
65078;DHT22;51672;51.230;-2.322;2023-02-01T03:55:59;6.80;99.90
65078;DHT22;51672;51.230;-2.322;2023-02-01T03:59:44;6.80;99.90
65078;DHT22;51672;51.230;-2.322;2023-02-01T04:03:27;6.90;99.90
65078;DHT22;51672;51.230;-2.322;2023-02-01T04:07:09;6.90;99.90
65078;DHT22;51672;51.230;-2.322;2023-02-01T04:10:51;7.00;99.90
65078;DHT22;51672;51.230;-2.322;2023-02-01T04:14:33;7.10;99.90
65078;DHT22;51672;51.230;-2.322;2023-02-01T04:18:15;7.20;99.90
65078;DHT22;51672;51.230;-2.322;2023-02-01T04:21:57;7.20;99.90
65078;DHT22;51672;51.230;-2.322;2023-02-01T04:25:39;7.20;99.90
65078;DHT22;51672;51.230;-2.322;2023-02-01T04:29:21;7.20;99.90
65078;DHT22;51672;51.230;-2.322;2023-02-01T04:33:03;7.40;99.90
65078;DHT22;51672;51.230;-2.322;2023-02-01T04:36:49;7.40;99.90
65078;DHT22;51672;51.230;-2.322;2023-02-01T04:40:31;7.50;99.90
65078;DHT22;51672;51.230;-2.322;2023-02-01T04:44:17;7.60;99.90
65078;DHT22;51672;51.230;-2.322;2023-02-01T04:47:59;7.60;99.90
65078;DHT22;51672;51.230;-2.322;2023-02-01T04:51:42;7.60;99.90
65078;DHT22;51672;51.230;-2.322;2023-02-01T04:55:24;7.60;99.90
65078;DHT22;51672;51.230;-2.322;2023-02-01T04:59:10;7.70;99.90
65078;DHT22;51672;51.230;-2.322;2023-02-01T05:02:53;7.70;99.90
65078;DHT22;51672;51.230;-2.322;2023-02-01T05:06:35;7.70;99.90
65078;DHT22;51672;51.230;-2.322;2023-02-01T05:10:17;7.70;99.90
65078;DHT22;51672;51.230;-2.322;2023-02-01T05:14:00;7.70;99.90
65078;DHT22;51672;51.230;-2.322;2023-02-01T05:17:45;7.60;99.90
65078;DHT22;51672;51.230;-2.322;2023-02-01T05:21:30;7.60;99.90
65078;DHT22;51672;51.230;-2.322;2023-02-01T05:25:12;7.50;99.90
65078;DHT22;51672;51.230;-2.322;2023-02-01T05:28:54;7.50;99.90
65078;DHT22;51672;51.230;-2.322;2023-02-01T05:32:36;7.50;99.90
65078;DHT22;51672;51.230;-2.322;2023-02-01T05:36:18;7.50;99.90
65078;DHT22;51672;51.230;-2.322;2023-02-01T05:40:00;7.60;99.90
65078;DHT22;51672;51.230;-2.322;2023-02-01T05:43:42;7.70;99.90
65078;DHT22;51672;51.230;-2.322;2023-02-01T05:47:24;7.70;99.90
65078;DHT22;51672;51.230;-2.322;2023-02-01T05:51:07;7.70;99.90
65078;DHT22;51672;51.230;-2.322;2023-02-01T05:54:49;7.70;99.90
65078;DHT22;51672;51.230;-2.322;2023-02-01T05:58:31;7.70;99.90
65078;DHT22;51672;51.230;-2.322;2023-02-01T06:02:13;7.50;99.90
65078;DHT22;51672;51.230;-2.322;2023-02-01T06:05:55;7.40;99.90
65078;DHT22;51672;51.230;-2.322;2023-02-01T06:09:37;7.30;99.90
65078;DHT22;51672;51.230;-2.322;2023-02-01T06:13:19;7.30;99.90
65078;DHT22;51672;51.230;-2.322;2023-02-01T06:17:02;7.10;99.90
65078;DHT22;51672;51.230;-2.322;2023-02-01T06:20:44;7.10;99.90
65078;DHT22;51672;51.230;-2.322;2023-02-01T06:24:26;7.00;99.90
65078;DHT22;51672;51.230;-2.322;2023-02-01T06:28:08;6.90;99.90
65078;DHT22;51672;51.230;-2.322;2023-02-01T06:31:50;6.80;99.90
65078;DHT22;51672;51.230;-2.322;2023-02-01T06:35:32;6.80;99.90
65078;DHT22;51672;51.230;-2.322;2023-02-01T06:39:14;6.80;99.90
65078;DHT22;51672;51.230;-2.322;2023-02-01T06:42:57;6.70;99.90
65078;DHT22;51672;51.230;-2.322;2023-02-01T06:46:42;6.70;99.90
65078;DHT22;51672;51.230;-2.322;2023-02-01T06:50:24;6.70;99.90
65078;DHT22;51672;51.230;-2.322;2023-02-01T06:54:06;6.70;99.90
65078;DHT22;51672;51.230;-2.322;2023-02-01T06:57:53;6.70;99.90
65078;DHT22;51672;51.230;-2.322;2023-02-01T07:01:35;6.60;99.90
65078;DHT22;51672;51.230;-2.322;2023-02-01T07:05:17;6.60;99.90
65078;DHT22;51672;51.230;-2.322;2023-02-01T07:08:59;6.60;99.90
65078;DHT22;51672;51.230;-2.322;2023-02-01T07:12:42;6.60;99.90
65078;DHT22;51672;51.230;-2.322;2023-02-01T07:16:24;6.60;99.90
65078;DHT22;51672;51.230;-2.322;2023-02-01T07:20:07;6.60;99.90
65078;DHT22;51672;51.230;-2.322;2023-02-01T07:23:49;6.60;99.90
65078;DHT22;51672;51.230;-2.322;2023-02-01T07:27:34;6.60;99.90
65078;DHT22;51672;51.230;-2.322;2023-02-01T07:31:18;6.70;99.90
65078;DHT22;51672;51.230;-2.322;2023-02-01T07:35:03;6.90;99.90
65078;DHT22;51672;51.230;-2.322;2023-02-01T07:38:46;7.00;99.90
65078;DHT22;51672;51.230;-2.322;2023-02-01T07:42:31;7.00;99.90
65078;DHT22;51672;51.230;-2.322;2023-02-01T07:46:13;7.10;99.90
65078;DHT22;51672;51.230;-2.322;2023-02-01T07:49:57;7.10;99.90
65078;DHT22;51672;51.230;-2.322;2023-02-01T07:53:39;7.10;99.90
65078;DHT22;51672;51.230;-2.322;2023-02-01T07:57:21;7.10;99.90
65078;DHT22;51672;51.230;-2.322;2023-02-01T08:01:03;7.00;99.90
65078;DHT22;51672;51.230;-2.322;2023-02-01T08:05:06;7.00;99.90
65078;DHT22;51672;51.230;-2.322;2023-02-01T08:08:49;7.00;99.90
65078;DHT22;51672;51.230;-2.322;2023-02-01T08:12:31;7.20;99.90
65078;DHT22;51672;51.230;-2.322;2023-02-01T08:16:16;7.20;99.90
65078;DHT22;51672;51.230;-2.322;2023-02-01T08:20:06;7.30;99.90
65078;DHT22;51672;51.230;-2.322;2023-02-01T08:23:52;7.40;99.90
65078;DHT22;51672;51.230;-2.322;2023-02-01T08:27:37;7.50;99.90
65078;DHT22;51672;51.230;-2.322;2023-02-01T08:35:24;7.80;99.90
65078;DHT22;51672;51.230;-2.322;2023-02-01T08:44:04;8.00;99.90
65078;DHT22;51672;51.230;-2.322;2023-02-01T08:47:46;7.90;99.90
65078;DHT22;51672;51.230;-2.322;2023-02-01T10:43:14;11.30;99.90
65078;DHT22;51672;51.230;-2.322;2023-02-01T15:00:18;11.40;99.90
65078;DHT22;51672;51.230;-2.322;2023-02-01T15:23:45;11.20;99.90
65078;DHT22;51672;51.230;-2.322;2023-02-01T17:40:01;9.90;99.90
65078;DHT22;51672;51.230;-2.322;2023-02-01T17:54:21;9.80;99.90
65078;DHT22;51672;51.230;-2.322;2023-02-01T17:58:03;9.70;99.90
65078;DHT22;51672;51.230;-2.322;2023-02-01T18:01:45;9.80;99.90
65078;DHT22;51672;51.230;-2.322;2023-02-01T18:05:38;9.70;99.90
65078;DHT22;51672;51.230;-2.322;2023-02-01T18:09:21;9.80;99.90
65078;DHT22;51672;51.230;-2.322;2023-02-01T18:13:04;9.80;99.90
65078;DHT22;51672;51.230;-2.322;2023-02-01T18:16:49;9.80;99.90
65078;DHT22;51672;51.230;-2.322;2023-02-01T18:20:31;9.80;99.90
65078;DHT22;51672;51.230;-2.322;2023-02-01T18:24:15;9.80;99.90
65078;DHT22;51672;51.230;-2.322;2023-02-01T18:27:57;9.90;99.90
65078;DHT22;51672;51.230;-2.322;2023-02-01T18:31:49;9.80;99.90
65078;DHT22;51672;51.230;-2.322;2023-02-01T18:35:31;9.80;99.90
65078;DHT22;51672;51.230;-2.322;2023-02-01T18:39:14;9.80;99.90
65078;DHT22;51672;51.230;-2.322;2023-02-01T18:42:56;9.80;99.90
65078;DHT22;51672;51.230;-2.322;2023-02-01T18:46:39;9.80;99.90
65078;DHT22;51672;51.230;-2.322;2023-02-01T18:50:24;9.80;99.90
65078;DHT22;51672;51.230;-2.322;2023-02-01T18:54:08;9.80;99.90
65078;DHT22;51672;51.230;-2.322;2023-02-01T18:57:51;9.80;99.90
65078;DHT22;51672;51.230;-2.322;2023-02-01T19:01:33;9.80;99.90
65078;DHT22;51672;51.230;-2.322;2023-02-01T19:05:19;9.80;99.90
65078;DHT22;51672;51.230;-2.322;2023-02-01T19:09:06;9.80;99.90
65078;DHT22;51672;51.230;-2.322;2023-02-01T19:12:49;9.70;99.90
65078;DHT22;51672;51.230;-2.322;2023-02-01T19:16:31;9.70;99.90
65078;DHT22;51672;51.230;-2.322;2023-02-01T19:20:20;9.70;99.90
65078;DHT22;51672;51.230;-2.322;2023-02-01T19:24:16;9.70;99.90
65078;DHT22;51672;51.230;-2.322;2023-02-01T19:28:01;9.70;99.90
65078;DHT22;51672;51.230;-2.322;2023-02-01T19:31:48;9.70;99.90
65078;DHT22;51672;51.230;-2.322;2023-02-01T19:35:30;9.70;99.90
65078;DHT22;51672;51.230;-2.322;2023-02-01T19:39:16;9.60;99.90
65078;DHT22;51672;51.230;-2.322;2023-02-01T19:42:58;9.60;99.90
65078;DHT22;51672;51.230;-2.322;2023-02-01T19:46:45;9.60;99.90
65078;DHT22;51672;51.230;-2.322;2023-02-01T19:50:55;9.60;99.90
65078;DHT22;51672;51.230;-2.322;2023-02-01T19:54:57;9.60;99.90
65078;DHT22;51672;51.230;-2.322;2023-02-01T19:58:58;9.60;99.90
65078;DHT22;51672;51.230;-2.322;2023-02-01T20:02:50;9.60;99.90
65078;DHT22;51672;51.230;-2.322;2023-02-01T20:06:48;9.60;99.90
65078;DHT22;51672;51.230;-2.322;2023-02-01T20:10:55;9.60;99.90
65078;DHT22;51672;51.230;-2.322;2023-02-01T20:14:44;9.60;99.90
65078;DHT22;51672;51.230;-2.322;2023-02-01T20:18:37;9.60;99.90
65078;DHT22;51672;51.230;-2.322;2023-02-01T20:22:46;9.60;99.90
65078;DHT22;51672;51.230;-2.322;2023-02-01T20:27:14;9.60;99.90
65078;DHT22;51672;51.230;-2.322;2023-02-01T20:31:07;9.50;99.90
65078;DHT22;51672;51.230;-2.322;2023-02-01T20:34:54;9.50;99.90
65078;DHT22;51672;51.230;-2.322;2023-02-01T20:38:51;9.50;99.90
65078;DHT22;51672;51.230;-2.322;2023-02-01T20:42:37;9.50;99.90
65078;DHT22;51672;51.230;-2.322;2023-02-01T20:46:24;9.50;99.90
65078;DHT22;51672;51.230;-2.322;2023-02-01T20:50:16;9.50;99.90
65078;DHT22;51672;51.230;-2.322;2023-02-01T20:53:58;9.50;99.90
65078;DHT22;51672;51.230;-2.322;2023-02-01T20:57:49;9.40;99.90
65078;DHT22;51672;51.230;-2.322;2023-02-01T21:01:37;9.50;99.90
65078;DHT22;51672;51.230;-2.322;2023-02-01T21:05:36;9.40;99.90
65078;DHT22;51672;51.230;-2.322;2023-02-01T21:09:24;9.40;99.90
65078;DHT22;51672;51.230;-2.322;2023-02-01T21:13:10;9.30;99.90
65078;DHT22;51672;51.230;-2.322;2023-02-01T21:16:57;9.30;99.90
65078;DHT22;51672;51.230;-2.322;2023-02-01T21:20:42;9.30;99.90
65078;DHT22;51672;51.230;-2.322;2023-02-01T21:24:27;9.30;99.90
65078;DHT22;51672;51.230;-2.322;2023-02-01T21:28:16;9.20;99.90
65078;DHT22;51672;51.230;-2.322;2023-02-01T21:32:03;9.20;99.90
65078;DHT22;51672;51.230;-2.322;2023-02-01T21:35:55;9.10;99.90
65078;DHT22;51672;51.230;-2.322;2023-02-01T21:39:43;9.00;99.90
65078;DHT22;51672;51.230;-2.322;2023-02-01T21:43:25;8.90;99.90
65078;DHT22;51672;51.230;-2.322;2023-02-01T21:47:16;8.90;99.90
65078;DHT22;51672;51.230;-2.322;2023-02-01T21:51:17;8.80;99.90
65078;DHT22;51672;51.230;-2.322;2023-02-01T21:55:02;8.90;99.90
65078;DHT22;51672;51.230;-2.322;2023-02-01T21:58:48;9.00;99.90
65078;DHT22;51672;51.230;-2.322;2023-02-01T22:02:38;9.10;99.90
65078;DHT22;51672;51.230;-2.322;2023-02-01T22:06:43;9.10;99.90
65078;DHT22;51672;51.230;-2.322;2023-02-01T22:10:29;9.20;99.90
65078;DHT22;51672;51.230;-2.322;2023-02-01T22:14:12;9.20;99.90
65078;DHT22;51672;51.230;-2.322;2023-02-01T22:17:55;9.30;99.90
65078;DHT22;51672;51.230;-2.322;2023-02-01T22:21:38;9.30;99.90
65078;DHT22;51672;51.230;-2.322;2023-02-01T22:25:23;9.40;99.90
65078;DHT22;51672;51.230;-2.322;2023-02-01T22:29:06;9.40;99.90
65078;DHT22;51672;51.230;-2.322;2023-02-01T22:32:49;9.40;99.90
65078;DHT22;51672;51.230;-2.322;2023-02-01T22:36:31;9.40;99.90
65078;DHT22;51672;51.230;-2.322;2023-02-01T22:40:16;9.50;99.90
65078;DHT22;51672;51.230;-2.322;2023-02-01T22:43:58;9.50;99.90
65078;DHT22;51672;51.230;-2.322;2023-02-01T22:47:41;9.50;99.90
65078;DHT22;51672;51.230;-2.322;2023-02-01T22:51:28;9.50;99.90
65078;DHT22;51672;51.230;-2.322;2023-02-01T22:55:10;9.50;99.90
65078;DHT22;51672;51.230;-2.322;2023-02-01T22:59:03;9.60;99.90
65078;DHT22;51672;51.230;-2.322;2023-02-01T23:02:46;9.60;99.90
65078;DHT22;51672;51.230;-2.322;2023-02-01T23:06:28;9.60;99.90
65078;DHT22;51672;51.230;-2.322;2023-02-01T23:10:11;9.60;99.90
65078;DHT22;51672;51.230;-2.322;2023-02-01T23:13:54;9.70;99.90
65078;DHT22;51672;51.230;-2.322;2023-02-01T23:17:36;9.70;99.90
65078;DHT22;51672;51.230;-2.322;2023-02-01T23:21:20;9.70;99.90
65078;DHT22;51672;51.230;-2.322;2023-02-01T23:25:02;9.70;99.90
65078;DHT22;51672;51.230;-2.322;2023-02-01T23:28:44;9.70;99.90
65078;DHT22;51672;51.230;-2.322;2023-02-01T23:32:27;9.70;99.90
65078;DHT22;51672;51.230;-2.322;2023-02-01T23:36:11;9.70;99.90
65078;DHT22;51672;51.230;-2.322;2023-02-01T23:39:53;9.80;99.90
65078;DHT22;51672;51.230;-2.322;2023-02-01T23:43:35;9.70;99.90
65078;DHT22;51672;51.230;-2.322;2023-02-01T23:47:36;9.70;99.90
65078;DHT22;51672;51.230;-2.322;2023-02-01T23:51:19;9.80;99.90
65078;DHT22;51672;51.230;-2.322;2023-02-01T23:55:01;9.80;99.90
65078;DHT22;51672;51.230;-2.322;2023-02-01T23:58:44;9.80;99.90
